createdAt,value
2022-08-20T00:01:02.043Z,20.58
2022-08-20T00:01:58.628Z,20.63
2022-08-20T00:02:58.668Z,20.57
2022-08-20T00:03:58.604Z,20.58
2022-08-20T00:04:58.652Z,20.61
2022-08-20T00:05:58.584Z,20.63
2022-08-20T00:06:58.574Z,20.53
2022-08-20T00:07:58.618Z,20.46
2022-08-20T00:08:58.587Z,20.46
2022-08-20T00:09:58.547Z,20.40
2022-08-20T00:10:58.537Z,20.37
2022-08-20T00:11:58.525Z,20.40
2022-08-20T00:12:58.519Z,20.42
2022-08-20T00:13:58.548Z,20.44
2022-08-20T00:14:58.499Z,20.46
2022-08-20T00:15:58.493Z,20.41
2022-08-20T00:17:00.048Z,20.42
2022-08-20T00:17:58.480Z,20.42
2022-08-20T00:18:58.460Z,20.46
2022-08-20T00:19:58.478Z,20.46
2022-08-20T00:20:58.441Z,20.46
2022-08-20T00:21:58.680Z,20.51
2022-08-20T00:22:58.419Z,20.60
2022-08-20T00:23:58.410Z,20.57
2022-08-20T00:24:58.439Z,20.56
2022-08-20T00:25:58.409Z,20.72
2022-08-20T00:26:58.381Z,20.63
2022-08-20T00:27:58.369Z,20.73
2022-08-20T00:28:58.359Z,20.75
2022-08-20T00:29:58.350Z,20.66
2022-08-20T00:30:58.383Z,20.56
2022-08-20T00:31:58.325Z,20.56
2022-08-20T00:32:59.318Z,20.56
2022-08-20T00:33:58.319Z,20.42
2022-08-20T00:34:58.314Z,20.41
2022-08-20T00:35:58.336Z,20.48
2022-08-20T00:36:58.286Z,20.46
2022-08-20T00:38:00.626Z,20.41
2022-08-20T00:38:59.272Z,20.48
2022-08-20T00:39:58.317Z,20.42
2022-08-20T00:40:58.252Z,20.48
2022-08-20T00:41:58.281Z,20.40
2022-08-20T00:42:58.230Z,20.48
2022-08-20T00:43:58.219Z,20.58
2022-08-20T00:44:58.206Z,20.58
2022-08-20T00:46:32.075Z,20.58
2022-08-20T00:46:58.258Z,20.60
2022-08-20T00:47:58.278Z,20.60
2022-08-20T00:48:58.244Z,20.56
2022-08-20T00:49:58.156Z,20.41
2022-08-20T00:50:58.152Z,20.41
2022-08-20T00:51:58.146Z,20.40
2022-08-20T00:52:58.156Z,20.46
2022-08-20T00:53:59.130Z,20.42
2022-08-20T00:54:58.126Z,20.53
2022-08-20T00:55:58.106Z,20.41
2022-08-20T00:56:58.093Z,20.51
2022-08-20T00:58:01.810Z,20.38
2022-08-20T00:58:58.084Z,20.34
2022-08-20T00:59:58.066Z,20.25
2022-08-20T01:00:58.059Z,20.27
2022-08-20T01:01:58.112Z,20.25
2022-08-20T01:02:58.069Z,20.35
2022-08-20T01:03:58.031Z,20.27
2022-08-20T01:04:58.023Z,20.31
2022-08-20T01:05:58.008Z,20.19
2022-08-20T01:06:58.004Z,20.20
2022-08-20T01:07:58.059Z,20.08
2022-08-20T01:08:58.015Z,20.02
2022-08-20T01:09:59.446Z,20.16
2022-08-20T01:10:57.965Z,20.15
2022-08-20T01:11:57.953Z,20.15
2022-08-20T01:12:59.511Z,20.17
2022-08-20T01:13:57.986Z,20.10
2022-08-20T01:14:57.937Z,20.05
2022-08-20T01:15:57.914Z,20.10
2022-08-20T01:16:57.908Z,20.02
2022-08-20T01:17:57.899Z,20.12
2022-08-20T01:18:57.892Z,20.12
2022-08-20T01:19:57.911Z,20.12
2022-08-20T01:20:57.871Z,20.10
2022-08-20T01:21:57.861Z,20.02
2022-08-20T01:22:57.852Z,19.95
2022-08-20T01:23:57.840Z,19.92
2022-08-20T01:24:57.858Z,19.95
2022-08-20T01:25:57.824Z,19.89
2022-08-20T01:26:57.815Z,19.87
2022-08-20T01:27:58.118Z,19.87
2022-08-20T01:28:57.791Z,19.94
2022-08-20T01:29:57.783Z,19.86
2022-08-20T01:30:57.813Z,19.86
2022-08-20T01:31:57.768Z,19.87
2022-08-20T01:32:57.751Z,19.94
2022-08-20T01:33:57.740Z,19.90
2022-08-20T01:34:57.730Z,19.89
2022-08-20T01:35:57.764Z,19.85
2022-08-20T01:36:57.714Z,19.86
2022-08-20T01:37:57.898Z,19.80
2022-08-20T01:38:57.696Z,19.79
2022-08-20T01:39:57.749Z,19.85
2022-08-20T01:40:57.668Z,19.83
2022-08-20T01:41:58.699Z,19.83
2022-08-20T01:42:59.201Z,19.87
2022-08-20T01:43:58.308Z,20.00
2022-08-20T01:44:57.649Z,19.87
2022-08-20T01:45:57.634Z,19.86
2022-08-20T01:46:57.960Z,19.89
2022-08-20T01:47:57.865Z,19.89
2022-08-20T01:48:57.607Z,19.94
2022-08-20T01:49:57.594Z,19.97
2022-08-20T01:50:57.581Z,19.97
2022-08-20T01:51:57.590Z,19.95
2022-08-20T01:52:57.635Z,20.02
2022-08-20T01:53:57.553Z,19.97
2022-08-20T01:54:57.543Z,19.98
2022-08-20T01:55:57.536Z,19.98
2022-08-20T01:56:57.527Z,19.98
2022-08-20T01:57:57.744Z,20.20
2022-08-20T01:58:58.956Z,20.16
2022-08-20T01:59:57.498Z,20.20
2022-08-20T02:00:57.488Z,20.25
2022-08-20T02:01:57.570Z,20.20
2022-08-20T02:02:57.477Z,20.26
2022-08-20T02:03:57.512Z,20.25
2022-08-20T02:04:57.451Z,20.17
2022-08-20T02:05:57.442Z,20.10
2022-08-20T02:06:57.873Z,20.25
2022-08-20T02:07:58.425Z,20.20
2022-08-20T02:08:57.445Z,20.19
2022-08-20T02:09:57.402Z,20.05
2022-08-20T02:10:57.394Z,20.16
2022-08-20T02:11:57.384Z,20.13
2022-08-20T02:12:57.373Z,20.08
2022-08-20T02:13:57.366Z,20.13
2022-08-20T02:14:57.426Z,20.16
2022-08-20T02:15:57.348Z,20.13
2022-08-20T02:16:57.336Z,20.05
2022-08-20T02:17:57.378Z,20.08
2022-08-20T02:18:57.312Z,20.16
2022-08-20T02:19:57.334Z,20.20
2022-08-20T02:20:57.296Z,20.20
2022-08-20T02:21:57.281Z,20.25
2022-08-20T02:22:57.274Z,20.31
2022-08-20T02:23:57.265Z,20.33
2022-08-20T02:24:57.257Z,20.33
2022-08-20T02:25:57.280Z,20.38
2022-08-20T02:26:57.236Z,20.34
2022-08-20T02:27:57.405Z,20.37
2022-08-20T02:28:57.217Z,20.40
2022-08-20T02:29:57.206Z,20.40
2022-08-20T02:30:57.236Z,20.33
2022-08-20T02:32:24.737Z,20.40
2022-08-20T02:32:58.177Z,20.40
2022-08-20T02:34:21.667Z,20.38
2022-08-20T02:34:58.162Z,20.34
2022-08-20T02:35:57.147Z,20.42
2022-08-20T02:36:57.200Z,20.35
2022-08-20T02:37:57.266Z,20.40
2022-08-20T02:38:57.123Z,20.46
2022-08-20T02:39:57.153Z,20.40
2022-08-20T02:40:57.121Z,20.46
2022-08-20T02:41:57.111Z,20.40
2022-08-20T02:42:57.079Z,20.26
2022-08-20T02:43:57.072Z,20.26
2022-08-20T02:44:57.059Z,20.31
2022-08-20T02:45:57.047Z,20.35
2022-08-20T02:46:57.086Z,20.37
2022-08-20T02:47:57.239Z,20.37
2022-08-20T02:48:57.024Z,20.26
2022-08-20T02:49:57.013Z,20.40
2022-08-20T02:50:57.004Z,20.23
2022-08-20T02:51:56.997Z,20.23
2022-08-20T02:52:57.000Z,20.25
2022-08-20T02:53:56.975Z,20.25
2022-08-20T02:54:56.965Z,20.25
2022-08-20T02:55:56.958Z,20.27
2022-08-20T02:56:56.955Z,20.31
2022-08-20T02:57:58.852Z,20.35
2022-08-20T02:58:56.923Z,20.31
2022-08-20T02:59:56.918Z,20.31
2022-08-20T03:00:56.967Z,20.30
2022-08-20T03:02:00.260Z,20.23
2022-08-20T03:02:56.898Z,20.23
2022-08-20T03:03:56.872Z,20.23
2022-08-20T03:04:56.862Z,20.22
2022-08-20T03:05:56.856Z,20.17
2022-08-20T03:06:56.848Z,20.17
2022-08-20T03:07:57.214Z,20.01
2022-08-20T03:08:56.824Z,20.05
2022-08-20T03:09:56.815Z,20.07
2022-08-20T03:10:56.807Z,20.12
2022-08-20T03:11:56.790Z,20.00
2022-08-20T03:12:56.850Z,19.76
2022-08-20T03:13:56.775Z,19.68
2022-08-20T03:14:56.765Z,19.68
2022-08-20T03:15:59.006Z,19.62
2022-08-20T03:16:57.751Z,19.40
2022-08-20T03:17:56.921Z,19.49
2022-08-20T03:18:56.743Z,19.45
2022-08-20T03:19:56.721Z,19.53
2022-08-20T03:20:56.711Z,19.62
2022-08-20T03:21:56.697Z,19.55
2022-08-20T03:22:56.692Z,19.55
2022-08-20T03:23:56.695Z,19.67
2022-08-20T03:24:56.669Z,19.71
2022-08-20T03:25:56.660Z,19.71
2022-08-20T03:26:56.649Z,19.83
2022-08-20T03:27:56.869Z,19.86
2022-08-20T03:28:56.649Z,19.87
2022-08-20T03:29:56.628Z,20.00
2022-08-20T03:30:56.623Z,19.92
2022-08-20T03:31:56.610Z,19.92
2022-08-20T03:32:56.602Z,19.80
2022-08-20T03:33:56.603Z,19.85
2022-08-20T03:34:56.577Z,19.89
2022-08-20T03:35:56.567Z,19.98
2022-08-20T03:36:56.557Z,19.90
2022-08-20T03:37:56.584Z,19.83
2022-08-20T03:38:56.553Z,19.79
2022-08-20T03:39:56.582Z,19.83
2022-08-20T03:40:56.522Z,19.85
2022-08-20T03:41:56.510Z,19.90
2022-08-20T03:42:56.501Z,19.85
2022-08-20T03:43:56.525Z,19.89
2022-08-20T03:44:59.162Z,19.85
2022-08-20T03:45:56.473Z,19.86
2022-08-20T03:46:56.473Z,19.89
2022-08-20T03:47:56.627Z,19.86
2022-08-20T03:48:59.936Z,20.01
2022-08-20T03:49:56.448Z,19.89
2022-08-20T03:50:56.424Z,20.04
2022-08-20T03:51:58.416Z,20.02
2022-08-20T03:52:56.403Z,19.90
2022-08-20T03:53:56.407Z,20.01
2022-08-20T03:54:56.396Z,20.10
2022-08-20T03:56:00.482Z,20.01
2022-08-20T03:56:58.367Z,20.00
2022-08-20T03:57:56.519Z,19.94
2022-08-20T03:58:56.351Z,20.01
2022-08-20T03:59:58.230Z,19.98
2022-08-20T04:00:56.362Z,20.01
2022-08-20T04:01:56.418Z,20.04
2022-08-20T04:02:56.313Z,20.07
2022-08-20T04:03:56.301Z,20.07
2022-08-20T04:04:56.329Z,20.08
2022-08-20T04:05:56.280Z,20.05
2022-08-20T04:06:56.286Z,20.08
2022-08-20T04:07:56.470Z,20.04
2022-08-20T04:08:57.250Z,20.10
2022-08-20T04:09:56.264Z,20.05
2022-08-20T04:10:56.263Z,20.07
2022-08-20T04:11:56.220Z,19.89
2022-08-20T04:12:56.208Z,20.01
2022-08-20T04:13:56.200Z,20.01
2022-08-20T04:14:56.189Z,20.07
2022-08-20T04:15:56.196Z,20.01
2022-08-20T04:16:56.171Z,20.02
2022-08-20T04:17:56.303Z,20.07
2022-08-20T04:19:01.647Z,20.02
2022-08-20T04:19:57.140Z,20.08
2022-08-20T04:20:56.169Z,20.02
2022-08-20T04:21:56.158Z,20.07
2022-08-20T04:22:58.673Z,20.05
2022-08-20T04:23:56.104Z,20.08
2022-08-20T04:24:56.090Z,20.13
2022-08-20T04:25:56.537Z,20.01
2022-08-20T04:26:56.097Z,20.08
2022-08-20T04:27:56.223Z,20.12
2022-08-20T04:28:56.054Z,20.05
2022-08-20T04:29:56.044Z,20.13
2022-08-20T04:30:56.034Z,20.05
2022-08-20T04:31:56.040Z,20.04
2022-08-20T04:32:56.030Z,20.01
2022-08-20T04:33:56.005Z,20.04
2022-08-20T04:34:56.008Z,20.16
2022-08-20T04:35:55.992Z,20.08
2022-08-20T04:36:56.004Z,20.13
2022-08-20T04:37:56.154Z,20.01
2022-08-20T04:38:55.968Z,20.07
2022-08-20T04:39:56.026Z,20.07
2022-08-20T04:40:55.938Z,20.05
2022-08-20T04:41:55.944Z,19.90
2022-08-20T04:42:55.917Z,19.97
2022-08-20T04:43:55.955Z,19.92
2022-08-20T04:44:55.903Z,19.90
2022-08-20T04:45:55.889Z,19.90
2022-08-20T04:46:55.894Z,19.94
2022-08-20T04:47:56.019Z,19.82
2022-08-20T04:48:55.860Z,19.94
2022-08-20T04:49:57.418Z,20.01
2022-08-20T04:50:55.844Z,19.92
2022-08-20T04:51:55.876Z,20.00
2022-08-20T04:52:55.824Z,20.01
2022-08-20T04:53:55.815Z,19.97
2022-08-20T04:54:55.805Z,20.01
2022-08-20T04:55:55.795Z,20.04
2022-08-20T04:56:55.824Z,20.05
2022-08-20T04:57:56.940Z,20.08
2022-08-20T04:58:55.772Z,20.05
2022-08-20T04:59:59.402Z,20.05
2022-08-20T05:00:56.774Z,20.04
2022-08-20T05:01:55.739Z,20.04
2022-08-20T05:02:55.788Z,19.94
2022-08-20T05:03:55.725Z,20.08
2022-08-20T05:04:55.715Z,19.95
2022-08-20T05:05:55.698Z,20.05
2022-08-20T05:06:55.710Z,19.98
2022-08-20T05:07:55.903Z,20.02
2022-08-20T05:08:55.671Z,20.07
2022-08-20T05:09:55.665Z,19.90
2022-08-20T05:11:06.658Z,19.97
2022-08-20T05:11:56.641Z,20.01
2022-08-20T05:12:57.377Z,19.94
2022-08-20T05:13:55.626Z,19.92
2022-08-20T05:14:55.627Z,19.89
2022-08-20T05:15:55.608Z,20.01
2022-08-20T05:16:55.601Z,19.87
2022-08-20T05:17:55.708Z,19.83
2022-08-20T05:18:55.595Z,19.80
2022-08-20T05:19:55.572Z,19.79
2022-08-20T05:20:55.561Z,19.78
2022-08-20T05:21:55.555Z,19.60
2022-08-20T05:22:55.543Z,19.45
2022-08-20T05:23:55.563Z,19.40
2022-08-20T05:24:55.524Z,19.40
2022-08-20T05:25:55.523Z,19.42
2022-08-20T05:26:55.507Z,19.30
2022-08-20T05:27:55.603Z,19.21
2022-08-20T05:28:58.487Z,19.25
2022-08-20T05:29:55.484Z,19.31
2022-08-20T05:30:55.472Z,19.23
2022-08-20T05:31:55.460Z,19.12
2022-08-20T05:32:55.448Z,19.07
2022-08-20T05:33:55.438Z,19.05
2022-08-20T05:34:55.446Z,19.01
2022-08-20T05:35:55.410Z,18.99
2022-08-20T05:36:56.410Z,18.97
2022-08-20T05:37:55.528Z,19.05
2022-08-20T05:38:55.387Z,18.91
2022-08-20T05:39:55.437Z,18.82
2022-08-20T05:40:55.371Z,18.84
2022-08-20T05:41:55.362Z,18.74
2022-08-20T05:42:55.365Z,18.68
2022-08-20T05:43:55.345Z,18.54
2022-08-20T05:44:55.366Z,18.51
2022-08-20T05:45:56.769Z,18.36
2022-08-20T05:46:56.311Z,18.36
2022-08-20T05:47:56.581Z,18.42
2022-08-20T05:48:55.294Z,18.41
2022-08-20T05:49:55.312Z,18.31
2022-08-20T05:50:55.273Z,18.38
2022-08-20T05:51:55.263Z,18.47
2022-08-20T05:52:55.302Z,18.34
2022-08-20T05:53:55.245Z,18.34
2022-08-20T05:54:55.238Z,18.26
2022-08-20T05:55:55.269Z,18.35
2022-08-20T05:56:55.219Z,18.31
2022-08-20T05:57:55.366Z,18.11
2022-08-20T05:58:55.197Z,18.14
2022-08-20T05:59:55.190Z,18.13
2022-08-20T06:00:55.352Z,18.11
2022-08-20T06:01:55.170Z,18.17
2022-08-20T06:02:55.161Z,18.23
2022-08-20T06:03:55.148Z,18.19
2022-08-20T06:04:56.093Z,18.29
2022-08-20T06:05:55.128Z,18.28
2022-08-20T06:06:55.134Z,18.35
2022-08-20T06:08:07.150Z,18.39
2022-08-20T06:08:56.101Z,18.31
2022-08-20T06:09:55.088Z,18.32
2022-08-20T06:10:55.078Z,18.41
2022-08-20T06:11:55.084Z,18.47
2022-08-20T06:12:55.060Z,18.44
2022-08-20T06:13:55.048Z,18.49
2022-08-20T06:14:55.041Z,18.28
2022-08-20T06:15:55.030Z,18.38
2022-08-20T06:16:57.868Z,18.38
2022-08-20T06:17:58.453Z,18.49
2022-08-20T06:18:54.996Z,18.50
2022-08-20T06:19:54.990Z,18.44
2022-08-20T06:20:54.980Z,18.46
2022-08-20T06:21:55.011Z,18.53
2022-08-20T06:22:54.959Z,18.59
2022-08-20T06:23:57.707Z,18.53
2022-08-20T06:24:54.945Z,18.62
2022-08-20T06:25:55.011Z,18.69
2022-08-20T06:26:54.920Z,18.74
2022-08-20T06:27:54.931Z,18.84
2022-08-20T06:28:54.909Z,18.94
2022-08-20T06:29:54.897Z,18.97
2022-08-20T06:30:54.880Z,18.96
2022-08-20T06:31:54.862Z,18.96
2022-08-20T06:32:55.881Z,19.06
2022-08-20T06:33:54.852Z,19.07
2022-08-20T06:34:54.845Z,19.16
2022-08-20T06:35:54.832Z,19.27
2022-08-20T06:36:54.839Z,19.27
2022-08-20T06:37:54.851Z,19.30
2022-08-20T06:38:54.821Z,19.20
2022-08-20T06:39:54.857Z,19.30
2022-08-20T06:40:54.784Z,19.25
2022-08-20T06:41:54.773Z,19.35
2022-08-20T06:42:54.778Z,19.43
2022-08-20T06:43:54.769Z,19.38
2022-08-20T06:44:54.743Z,19.28
2022-08-20T06:46:26.630Z,19.32
2022-08-20T06:46:54.725Z,19.24
2022-08-20T06:47:54.859Z,19.28
2022-08-20T06:48:54.722Z,19.31
2022-08-20T06:49:54.694Z,19.45
2022-08-20T06:50:54.691Z,19.47
2022-08-20T06:51:54.679Z,19.55
2022-08-20T06:52:54.685Z,19.57
2022-08-20T06:53:54.676Z,19.75
2022-08-20T06:54:54.645Z,19.71
2022-08-20T06:55:54.652Z,19.60
2022-08-20T06:56:54.633Z,19.71
2022-08-20T06:57:54.637Z,19.70
2022-08-20T06:58:54.624Z,19.79
2022-08-20T06:59:54.602Z,19.83
2022-08-20T07:00:54.664Z,19.86
2022-08-20T07:01:54.581Z,19.89
2022-08-20T07:02:54.580Z,19.97
2022-08-20T07:03:56.229Z,19.86
2022-08-20T07:04:54.551Z,19.79
2022-08-20T07:05:54.540Z,19.83
2022-08-20T07:06:54.531Z,19.82
2022-08-20T07:07:54.536Z,19.86
2022-08-20T07:08:54.525Z,19.89
2022-08-20T07:09:54.500Z,19.89
2022-08-20T07:10:54.484Z,19.92
2022-08-20T07:11:55.480Z,20.01
2022-08-20T07:12:54.489Z,20.10
2022-08-20T07:13:54.480Z,20.12
2022-08-20T07:14:54.455Z,20.02
2022-08-20T07:15:54.445Z,20.16
2022-08-20T07:16:54.439Z,20.15
2022-08-20T07:17:58.772Z,20.20
2022-08-20T07:18:56.433Z,20.23
2022-08-20T07:19:54.406Z,20.17
2022-08-20T07:20:54.396Z,20.22
2022-08-20T07:21:54.385Z,20.12
2022-08-20T07:22:54.391Z,20.13
2022-08-20T07:23:54.384Z,20.22
2022-08-20T07:24:54.360Z,20.33
2022-08-20T07:25:54.365Z,20.25
2022-08-20T07:26:56.894Z,20.31
2022-08-20T07:27:54.341Z,20.41
2022-08-20T07:28:54.330Z,20.42
2022-08-20T07:29:54.309Z,20.51
2022-08-20T07:30:56.859Z,20.51
2022-08-20T07:31:54.286Z,20.58
2022-08-20T07:32:54.289Z,20.41
2022-08-20T07:33:54.283Z,20.40
2022-08-20T07:34:54.259Z,20.48
2022-08-20T07:35:54.251Z,20.42
2022-08-20T07:36:54.238Z,20.31
2022-08-20T07:37:54.248Z,20.37
2022-08-20T07:38:54.239Z,20.33
2022-08-20T07:39:54.248Z,20.37
2022-08-20T07:40:54.200Z,20.46
2022-08-20T07:41:56.751Z,20.64
2022-08-20T07:42:54.198Z,20.63
2022-08-20T07:43:54.190Z,20.76
2022-08-20T07:44:54.169Z,20.72
2022-08-20T07:45:54.186Z,20.73
2022-08-20T07:46:54.155Z,20.83
2022-08-20T07:47:54.147Z,20.85
2022-08-20T07:48:54.147Z,20.97
2022-08-20T07:49:54.120Z,21.08
2022-08-20T07:50:54.108Z,21.19
2022-08-20T07:51:54.101Z,21.15
2022-08-20T07:52:55.327Z,21.11
2022-08-20T07:53:54.095Z,21.11
2022-08-20T07:54:54.067Z,21.16
2022-08-20T07:55:59.024Z,21.19
2022-08-20T07:56:55.051Z,21.37
2022-08-20T07:57:54.041Z,21.40
2022-08-20T07:58:54.074Z,21.30
2022-08-20T07:59:54.027Z,21.42
2022-08-20T08:00:54.043Z,21.55
2022-08-20T08:01:54.014Z,21.71
2022-08-20T08:02:53.993Z,21.64
2022-08-20T08:03:54.021Z,21.64
2022-08-20T08:04:53.969Z,21.49
2022-08-20T08:05:53.960Z,21.28
2022-08-20T08:06:53.955Z,21.51
2022-08-20T08:07:53.942Z,21.61
2022-08-20T08:08:53.939Z,21.70
2022-08-20T08:09:53.942Z,21.68
2022-08-20T08:10:53.916Z,21.70
2022-08-20T08:11:53.906Z,21.73
2022-08-20T08:12:53.899Z,21.68
2022-08-20T08:13:53.891Z,21.61
2022-08-20T08:14:53.893Z,21.75
2022-08-20T08:15:53.896Z,21.74
2022-08-20T08:16:53.856Z,21.75
2022-08-20T08:17:53.850Z,21.66
2022-08-20T08:18:53.857Z,21.68
2022-08-20T08:19:53.840Z,21.51
2022-08-20T08:20:53.819Z,21.46
2022-08-20T08:21:53.808Z,21.51
2022-08-20T08:22:53.824Z,21.51
2022-08-20T08:23:53.793Z,21.51
2022-08-20T08:24:57.236Z,21.43
2022-08-20T08:25:53.795Z,21.13
2022-08-20T08:26:53.762Z,21.09
2022-08-20T08:27:53.754Z,21.03
2022-08-20T08:28:53.741Z,20.94
2022-08-20T08:29:53.778Z,21.01
2022-08-20T08:30:53.723Z,21.00
2022-08-20T08:31:53.711Z,21.15
2022-08-20T08:32:53.699Z,21.34
2022-08-20T08:33:53.691Z,21.46
2022-08-20T08:34:53.720Z,21.68
2022-08-20T08:35:53.677Z,21.63
2022-08-20T08:36:53.668Z,21.71
2022-08-20T08:37:53.661Z,21.70
2022-08-20T08:38:53.648Z,21.64
2022-08-20T08:39:53.663Z,21.74
2022-08-20T08:40:53.875Z,21.46
2022-08-20T08:41:54.620Z,21.52
2022-08-20T08:42:53.630Z,21.42
2022-08-20T08:43:53.600Z,21.48
2022-08-20T08:44:53.592Z,21.74
2022-08-20T08:45:53.597Z,21.70
2022-08-20T08:46:53.573Z,21.63
2022-08-20T08:47:53.592Z,21.58
2022-08-20T08:48:53.559Z,21.49
2022-08-20T08:49:53.546Z,21.58
2022-08-20T08:50:54.806Z,21.68
2022-08-20T08:51:53.527Z,21.73
2022-08-20T08:52:53.522Z,21.75
2022-08-20T08:53:53.512Z,21.98
2022-08-20T08:54:53.501Z,22.01
2022-08-20T08:55:53.518Z,22.20
2022-08-20T08:56:53.492Z,22.19
2022-08-20T08:57:53.467Z,22.33
2022-08-20T08:58:53.460Z,22.23
2022-08-20T09:00:03.663Z,22.11
2022-08-20T09:00:57.460Z,22.06
2022-08-20T09:01:56.900Z,21.93
2022-08-20T09:02:53.634Z,22.19
2022-08-20T09:03:53.413Z,22.27
2022-08-20T09:04:53.403Z,22.45
2022-08-20T09:05:53.390Z,22.49
2022-08-20T09:06:53.398Z,22.75
2022-08-20T09:07:54.218Z,22.72
2022-08-20T09:08:53.370Z,22.99
2022-08-20T09:09:53.354Z,23.01
2022-08-20T09:10:53.350Z,23.18
2022-08-20T09:11:53.354Z,23.29
2022-08-20T09:12:53.328Z,23.45
2022-08-20T09:13:53.314Z,23.72
2022-08-20T09:14:53.330Z,23.81
2022-08-20T09:15:53.297Z,23.71
2022-08-20T09:16:53.703Z,23.75
2022-08-20T09:17:54.280Z,23.75
2022-08-20T09:18:53.270Z,23.78
2022-08-20T09:19:53.265Z,23.84
2022-08-20T09:20:53.249Z,23.81
2022-08-20T09:21:53.279Z,23.92
2022-08-20T09:22:53.303Z,23.84
2022-08-20T09:23:53.218Z,23.67
2022-08-20T09:24:53.211Z,23.60
2022-08-20T09:25:53.202Z,23.38
2022-08-20T09:26:53.223Z,23.37
2022-08-20T09:27:53.178Z,23.35
2022-08-20T09:28:54.185Z,23.29
2022-08-20T09:29:53.165Z,23.18
2022-08-20T09:30:53.158Z,23.01
2022-08-20T09:31:53.143Z,22.86
2022-08-20T09:32:53.195Z,22.78
2022-08-20T09:33:53.129Z,22.70
2022-08-20T09:34:53.116Z,22.76
2022-08-20T09:35:53.106Z,22.70
2022-08-20T09:36:53.101Z,22.59
2022-08-20T09:37:53.106Z,22.48
2022-08-20T09:38:53.080Z,22.42
2022-08-20T09:39:53.128Z,22.67
2022-08-20T09:40:53.061Z,22.70
2022-08-20T09:41:53.058Z,22.81
2022-08-20T09:42:53.119Z,22.82
2022-08-20T09:43:53.029Z,22.84
2022-08-20T09:44:53.021Z,22.97
2022-08-20T09:45:53.008Z,23.06
2022-08-20T09:46:53.005Z,22.91
2022-08-20T09:47:55.365Z,23.03
2022-08-20T09:48:52.986Z,23.06
2022-08-20T09:49:52.975Z,23.14
2022-08-20T09:50:52.962Z,23.11
2022-08-20T09:51:52.953Z,23.21
2022-08-20T09:52:52.944Z,23.26
2022-08-20T09:53:52.955Z,23.29
2022-08-20T09:54:52.925Z,23.22
2022-08-20T09:55:52.915Z,23.23
2022-08-20T09:56:52.906Z,23.34
2022-08-20T09:57:52.951Z,23.18
2022-08-20T09:58:52.921Z,23.19
2022-08-20T09:59:52.876Z,23.26
2022-08-20T10:00:52.866Z,23.39
2022-08-20T10:01:52.895Z,23.49
2022-08-20T10:02:52.879Z,23.50
2022-08-20T10:03:52.876Z,23.57
2022-08-20T10:04:52.828Z,23.53
2022-08-20T10:05:52.813Z,23.54
2022-08-20T10:06:52.806Z,23.72
2022-08-20T10:07:52.860Z,23.72
2022-08-20T10:08:52.788Z,23.69
2022-08-20T10:09:52.826Z,23.69
2022-08-20T10:10:52.773Z,23.50
2022-08-20T10:11:52.747Z,23.37
2022-08-20T10:12:55.093Z,23.47
2022-08-20T10:13:53.740Z,23.59
2022-08-20T10:14:52.793Z,23.53
2022-08-20T10:15:52.721Z,23.72
2022-08-20T10:16:52.711Z,23.87
2022-08-20T10:17:52.747Z,23.94
2022-08-20T10:18:52.702Z,23.94
2022-08-20T10:19:52.690Z,24.02
2022-08-20T10:20:52.688Z,24.26
2022-08-20T10:21:52.665Z,24.42
2022-08-20T10:22:52.646Z,24.41
2022-08-20T10:23:52.642Z,24.49
2022-08-20T10:24:52.639Z,24.67
2022-08-20T10:25:52.660Z,24.71
2022-08-20T10:26:52.620Z,24.77
2022-08-20T10:27:52.654Z,25.01
2022-08-20T10:28:52.598Z,24.99
2022-08-20T10:29:52.585Z,25.20
2022-08-20T10:30:52.594Z,25.35
2022-08-20T10:31:52.570Z,25.29
2022-08-20T10:32:52.570Z,25.57
2022-08-20T10:33:52.551Z,25.78
2022-08-20T10:34:52.545Z,25.83
2022-08-20T10:35:55.686Z,25.93
2022-08-20T10:36:53.522Z,25.93
2022-08-20T10:37:52.565Z,26.04
2022-08-20T10:38:52.502Z,26.42
2022-08-20T10:39:52.548Z,26.69
2022-08-20T10:40:52.763Z,26.96
2022-08-20T10:41:52.479Z,27.16
2022-08-20T10:42:52.468Z,27.27
2022-08-20T10:43:52.461Z,27.01
2022-08-20T10:44:52.451Z,27.08
2022-08-20T10:45:52.438Z,26.87
2022-08-20T10:46:56.997Z,26.81
2022-08-20T10:47:52.486Z,26.72
2022-08-20T10:48:52.410Z,26.79
2022-08-20T10:49:52.395Z,27.28
2022-08-20T10:50:52.392Z,27.09
2022-08-20T10:51:52.409Z,27.16
2022-08-20T10:52:52.375Z,26.78
2022-08-20T10:53:52.366Z,26.94
2022-08-20T10:54:52.363Z,27.20
2022-08-20T10:55:52.347Z,27.50
2022-08-20T10:56:52.372Z,27.87
2022-08-20T10:57:52.389Z,28.06
2022-08-20T10:58:52.334Z,28.27
2022-08-20T10:59:52.311Z,28.54
2022-08-20T11:00:52.306Z,28.51
2022-08-20T11:01:52.363Z,28.17
2022-08-20T11:02:52.302Z,27.78
2022-08-20T11:03:52.323Z,27.58
2022-08-20T11:04:52.268Z,27.95
2022-08-20T11:05:52.263Z,27.58
2022-08-20T11:06:52.251Z,27.80
2022-08-20T11:07:56.078Z,27.76
2022-08-20T11:08:52.237Z,28.03
2022-08-20T11:09:52.235Z,28.23
2022-08-20T11:10:52.219Z,28.23
2022-08-20T11:11:52.211Z,28.32
2022-08-20T11:12:52.236Z,28.40
2022-08-20T11:13:52.273Z,27.71
2022-08-20T11:14:52.179Z,27.55
2022-08-20T11:15:52.186Z,27.13
2022-08-20T11:16:52.167Z,27.21
2022-08-20T11:17:52.231Z,27.03
2022-08-20T11:18:52.148Z,26.97
2022-08-20T11:19:52.142Z,27.06
2022-08-20T11:20:52.132Z,27.13
2022-08-20T11:21:52.122Z,26.91
2022-08-20T11:22:52.127Z,26.88
2022-08-20T11:23:52.105Z,26.93
2022-08-20T11:24:52.168Z,26.88
2022-08-20T11:25:52.085Z,27.16
2022-08-20T11:26:52.078Z,27.21
2022-08-20T11:27:52.172Z,27.42
2022-08-20T11:28:52.056Z,27.61
2022-08-20T11:29:52.045Z,27.18
2022-08-20T11:30:52.041Z,27.28
2022-08-20T11:31:52.032Z,27.30
2022-08-20T11:32:52.058Z,27.03
2022-08-20T11:33:52.021Z,26.81
2022-08-20T11:34:52.012Z,27.01
2022-08-20T11:35:51.990Z,27.33
2022-08-20T11:36:51.994Z,27.27
2022-08-20T11:37:52.029Z,27.71
2022-08-20T11:38:51.981Z,28.15
2022-08-20T11:39:52.007Z,28.50
2022-08-20T11:40:51.949Z,28.17
2022-08-20T11:41:54.785Z,27.96
2022-08-20T11:43:13.705Z,27.25
2022-08-20T11:44:10.723Z,27.01
2022-08-20T11:44:53.908Z,27.01
2022-08-20T11:45:51.897Z,26.91
2022-08-20T11:46:51.885Z,27.11
2022-08-20T11:47:51.884Z,27.31
2022-08-20T11:48:51.887Z,27.50
2022-08-20T11:49:51.860Z,27.30
2022-08-20T11:50:51.851Z,26.98
2022-08-20T11:51:51.842Z,26.54
2022-08-20T11:52:51.831Z,26.00
2022-08-20T11:53:51.851Z,25.67
2022-08-20T11:54:54.733Z,25.42
2022-08-20T11:55:52.822Z,24.93
2022-08-20T11:56:51.821Z,24.27
2022-08-20T11:57:51.829Z,24.06
2022-08-20T11:58:51.825Z,23.75
2022-08-20T11:59:51.780Z,23.68
2022-08-20T12:00:51.766Z,23.16
2022-08-20T12:02:02.837Z,22.86
2022-08-20T12:02:52.911Z,22.56
2022-08-20T12:03:51.740Z,22.26
2022-08-20T12:04:51.745Z,22.14
2022-08-20T12:05:51.719Z,21.74
2022-08-20T12:06:51.709Z,21.43
2022-08-20T12:07:51.705Z,21.09
2022-08-20T12:08:51.690Z,20.82
2022-08-20T12:09:51.698Z,20.85
2022-08-20T12:10:51.670Z,20.58
2022-08-20T12:11:51.664Z,20.58
2022-08-20T12:12:51.655Z,20.38
2022-08-20T12:13:51.644Z,20.35
2022-08-20T12:14:51.835Z,20.22
2022-08-20T12:15:51.617Z,20.15
2022-08-20T12:16:51.609Z,20.02
2022-08-20T12:17:51.606Z,20.04
2022-08-20T12:18:51.595Z,19.95
2022-08-20T12:19:51.596Z,19.90
2022-08-20T12:20:51.573Z,19.90
2022-08-20T12:21:51.576Z,19.87
2022-08-20T12:22:51.558Z,19.83
2022-08-20T12:23:51.548Z,19.72
2022-08-20T12:24:51.555Z,19.76
2022-08-20T12:25:51.534Z,19.83
2022-08-20T12:26:51.516Z,19.85
2022-08-20T12:27:51.512Z,19.83
2022-08-20T12:28:51.501Z,19.86
2022-08-20T12:29:51.534Z,19.92
2022-08-20T12:30:51.483Z,19.92
2022-08-20T12:31:51.473Z,20.01
2022-08-20T12:32:51.464Z,19.95
2022-08-20T12:33:51.456Z,20.07
2022-08-20T12:34:51.475Z,20.02
2022-08-20T12:35:51.435Z,20.13
2022-08-20T12:36:51.441Z,20.20
2022-08-20T12:37:51.419Z,20.17
2022-08-20T12:38:51.407Z,20.27
2022-08-20T12:39:51.428Z,20.40
2022-08-20T12:40:51.399Z,20.48
2022-08-20T12:41:51.454Z,20.51
2022-08-20T12:42:51.374Z,20.53
2022-08-20T12:43:51.385Z,20.44
2022-08-20T12:44:51.364Z,20.38
2022-08-20T12:45:51.371Z,20.37
2022-08-20T12:46:51.332Z,20.26
2022-08-20T12:47:51.323Z,20.25
2022-08-20T12:48:51.366Z,20.31
2022-08-20T12:49:51.309Z,20.40
2022-08-20T12:50:51.338Z,20.37
2022-08-20T12:51:51.284Z,20.57
2022-08-20T12:52:51.274Z,20.69